This is the latest recevied weather packets stored in our database for station/object DOUGLAS. If no packets are shown the sender has not sent any weather packets the latest 1 day(s).
| Time | Temp. | Humidity | Pressure | Rain* | Wind** | Luminosity | Snow |
|---|---|---|---|---|---|---|---|
| 1778025603 | 13.89° C | 85% | 0 hPa | - | 1.34 m/s, 262° | - | - |
| 1778025003 | 14.44° C | 84% | 0 hPa | - | 0.89 m/s, 253° | - | - |
| 1778024403 | 13.89° C | 86% | 0 hPa | - | 1.79 m/s, 252° | - | - |
| 1778023803 | 14.44° C | 82% | 0 hPa | - | 1.34 m/s, 251° | - | - |
| 1778023203 | 14.44° C | 83% | 0 hPa | - | 1.34 m/s, 254° | - | - |
| 1778022603 | 13.33° C | 87% | 0 hPa | - | 1.79 m/s, 258° | - | - |
| 1778022003 | 13.33° C | 86% | 0 hPa | - | 1.79 m/s, 249° | - | - |
| 1778021403 | 15° C | 81% | 0 hPa | - | 0 m/s | - | - |
| 1778020803 | 14.44° C | 81% | 0 hPa | - | 0.89 m/s, 298° | - | - |
| 1778020216 | 15° C | 80% | 0 hPa | - | 0.45 m/s, 296° | - | - |
| 1778019602 | 13.89° C | 84% | 0 hPa | - | 0.45 m/s, 270° | - | - |
| 1778019002 | 13.33° C | 85% | 0 hPa | - | 1.79 m/s, 237° | - | - |
| 1778018403 | 13.33° C | 86% | 0 hPa | - | 0.89 m/s, 240° | - | - |
| 1778017803 | 13.33° C | 87% | 0 hPa | - | 0.89 m/s, 209° | - | - |
| 1778017203 | 13.33° C | 87% | 0 hPa | - | 0.89 m/s, 245° | - | - |
| 1778016603 | 12.78° C | 88% | 0 hPa | - | 0.45 m/s, 145° | - | - |
| 1778016003 | 12.78° C | 87% | 0 hPa | - | 0.45 m/s, 224° | - | - |
| 1778015403 | 12.78° C | 87% | 0 hPa | - | 0.89 m/s, 249° | - | - |
| 1778014803 | 13.33° C | 87% | 0 hPa | - | 0.45 m/s, 75° | - | - |
| 1778014203 | 12.22° C | 88% | 0 hPa | - | 0 m/s | - | - |
| 1778013603 | 12.22° C | 90% | 0 hPa | - | 0.45 m/s, 242° | - | - |
| 1778013003 | 12.22° C | 89% | 0 hPa | - | 0 m/s | - | - |
| 1778012403 | 12.78° C | 88% | 0 hPa | - | 0 m/s | - | - |
| 1778011803 | 11.67° C | 90% | 0 hPa | - | 0 m/s | - | - |
| 1778011204 | 11.67° C | 90% | 0 hPa | - | 0.89 m/s, 261° | - | - |
* Rain since midnight (hover to see other rain measurements)
** Current wind speed in m/s (hover to see current wind gust speed)